Terminal Aerodrome Forecast
Issued by NWS

Home | Current Version | Previous Version | Text Only | Print | Product List | Glossary On
Versions: 1 2 3 4 5 6 7 8 9 10 11 12 13 14 15 16 17 18 19 20 21
000
FTUS42 KFFC 232339 CCA
TAFRYY
TAF COR
KRYY 232339Z 2400/2424 22012G20KT P6SM SCT050
      TEMPO 2400/2401 VRB15G25KT 2SM TSRA BKN018CB
     FM240100 24010KT 6SM -SHRA BKN025
     FM240400 25008KT P6SM BKN012
     FM240800 25006KT P6SM FEW004 OVC009
     FM241400 26006KT P6SM VCSH BKN012
     FM241600 27008KT P6SM VCSH OVC025
      AMD NOT SKED 2404/2412=

USA.gov is the U.S. government's official web portal to all federal, state and local government web resources and services.